Time;durP1;ratioP1;P1;durP2;ratioP2;P2;SDS_P1;SDS_P2;PMS_P1;PMS_P2;Temp;Humidity;BMP_temperature;BMP_pressure;BME280_temperature;BME280_humidity;BME280_pressure;Samples;Min_cycle;Max_cycle;Signal;HPM_P1;HPM_P2
2021/11/12 00:02:31;;;;;;;24.40;18.57;;;8.90;99.90;;;;;;5018988;28;20755;-45
2021/11/12 00:13:22;;;;;;;18.90;14.07;;;9.30;99.90;;;;;;5022287;28;20560;-47
2021/11/12 00:15:52;;;;;;;17.87;13.00;;;9.20;99.90;;;;;;5018006;28;20616;-47
2021/11/12 00:18:20;;;;;;;17.33;13.30;;;9.10;99.90;;;;;;5022091;28;20423;-45
2021/11/12 00:20:47;;;;;;;14.37;11.70;;;9.20;99.90;;;;;;5007182;28;20437;-47
2021/11/12 00:23:14;;;;;;;14.70;11.33;;;9.20;99.90;;;;;;5004203;28;20445;-46
2021/11/12 00:25:42;;;;;;;16.37;11.20;;;9.20;99.90;;;;;;5011107;28;20469;-46
2021/11/12 00:28:09;;;;;;;14.07;10.83;;;9.30;99.90;;;;;;5017599;28;20801;-47
2021/11/12 00:33:40;;;;;;;11.40;9.93;;;9.30;99.90;;;;;;5009462;28;20967;-46
2021/11/12 00:36:04;;;;;;;9.60;7.70;;;9.30;99.90;;;;;;5011753;28;20433;-45
2021/11/12 00:38:35;;;;;;;11.67;8.63;;;9.40;99.90;;;;;;5006886;28;21224;-45
2021/11/12 00:41:16;;;;;;;8.73;7.83;;;9.40;99.90;;;;;;5008736;28;20947;-45
2021/11/12 00:43:45;;;;;;;9.47;7.47;;;9.50;99.90;;;;;;5020969;28;20460;-45
2021/11/12 00:46:37;;;;;;;8.50;6.87;;;9.30;99.90;;;;;;5006961;28;20430;-47
2021/11/12 00:49:08;;;;;;;9.87;7.20;;;9.30;99.90;;;;;;5012293;28;20449;-45
2021/11/12 00:51:45;;;;;;;9.10;7.00;;;9.30;99.90;;;;;;5006714;28;20462;-45
2021/11/12 00:54:13;;;;;;;10.07;7.57;;;9.30;99.90;;;;;;5025415;28;20514;-45
2021/11/12 00:56:38;;;;;;;9.60;6.73;;;9.30;99.90;;;;;;5019030;28;20468;-45
2021/11/12 00:59:07;;;;;;;8.33;7.40;;;9.20;99.90;;;;;;5017691;28;20987;-46
2021/11/12 01:01:37;;;;;;;7.70;6.90;;;9.30;99.90;;;;;;5013566;28;20206;-46
2021/11/12 01:04:06;;;;;;;8.33;6.53;;;9.30;99.90;;;;;;5006167;28;20530;-45
2021/11/12 01:06:33;;;;;;;8.00;5.93;;;9.30;99.90;;;;;;5006599;28;20462;-45
2021/11/12 01:08:59;;;;;;;6.33;5.60;;;9.30;99.90;;;;;;5007395;28;20851;-45
2021/11/12 01:11:26;;;;;;;8.50;5.43;;;9.40;99.90;;;;;;5010633;28;21153;-45
2021/11/12 01:13:53;;;;;;;6.00;5.40;;;9.40;99.90;;;;;;5012698;28;20491;-45
2021/11/12 01:16:20;;;;;;;7.33;5.20;;;9.40;99.90;;;;;;5008312;28;20820;-47
2021/11/12 01:18:46;;;;;;;5.90;5.30;;;9.40;99.90;;;;;;5017509;28;20425;-45
2021/11/12 01:21:13;;;;;;;5.67;5.10;;;9.30;99.90;;;;;;5015350;28;20472;-47
2021/11/12 01:23:42;;;;;;;6.67;5.27;;;9.40;99.90;;;;;;5008874;28;20438;-47
2021/11/12 01:26:08;;;;;;;5.90;5.07;;;9.20;99.90;;;;;;5003719;28;20892;-45
2021/11/12 01:28:35;;;;;;;9.20;5.10;;;9.20;99.90;;;;;;5011521;28;20999;-45
2021/11/12 01:31:01;;;;;;;5.87;5.00;;;9.00;99.90;;;;;;5011414;28;20461;-47
2021/11/12 01:33:28;;;;;;;6.40;4.97;;;9.20;99.90;;;;;;5012501;28;20923;-48
2021/11/12 01:35:56;;;;;;;6.50;5.40;;;9.00;99.90;;;;;;5013395;28;20468;-46
2021/11/12 01:38:23;;;;;;;5.93;5.33;;;9.30;99.90;;;;;;5010089;28;20983;-45
2021/11/12 01:40:49;;;;;;;5.60;4.90;;;9.10;99.90;;;;;;5015472;28;20959;-47
2021/11/12 01:43:18;;;;;;;5.80;5.20;;;9.20;99.90;;;;;;5024063;28;20440;-45
2021/11/12 01:50:58;;;;;;;6.47;5.73;;;9.20;99.90;;;;;;5009639;28;20543;-45
2021/11/12 01:53:27;;;;;;;6.37;5.20;;;9.20;99.90;;;;;;5021599;28;20448;-45
2021/11/12 01:58:53;;;;;;;5.63;5.00;;;9.10;99.90;;;;;;5022046;28;20470;-48
2021/11/12 02:01:23;;;;;;;7.13;5.57;;;9.10;99.90;;;;;;5011157;28;20449;-45
2021/11/12 02:03:50;;;;;;;6.20;5.60;;;8.90;99.90;;;;;;5011996;28;20955;-47
2021/11/12 02:06:18;;;;;;;6.97;6.03;;;8.90;99.90;;;;;;5017089;28;20535;-45
2021/11/12 02:08:45;;;;;;;6.10;5.50;;;8.90;99.90;;;;;;5009024;28;20434;-47
2021/11/12 02:11:11;;;;;;;6.70;6.00;;;8.70;99.90;;;;;;5012800;28;20985;-46
2021/11/12 02:13:37;;;;;;;6.70;6.00;;;8.80;99.90;;;;;;5016889;28;20437;-46
2021/11/12 02:16:06;;;;;;;6.60;5.90;;;9.00;99.90;;;;;;5012877;28;20442;-47
2021/11/12 02:18:37;;;;;;;8.17;7.10;;;8.80;99.90;;;;;;5015964;28;20433;-46
2021/11/12 02:21:30;;;;;;;6.93;6.10;;;8.70;99.90;;;;;;5014653;28;20864;-45
2021/11/12 02:26:27;;;;;;;10.13;6.43;;;8.70;99.90;;;;;;5013953;28;20434;-48
2021/11/12 02:28:56;;;;;;;6.47;5.40;;;8.70;99.90;;;;;;5025436;28;20610;-46
2021/11/12 02:31:23;;;;;;;7.10;5.93;;;8.50;99.90;;;;;;5020571;28;20505;-45
2021/11/12 02:33:50;;;;;;;7.27;6.20;;;8.50;99.90;;;;;;5009796;28;20430;-47
2021/11/12 02:36:17;;;;;;;7.37;6.67;;;8.50;99.90;;;;;;5009503;28;20437;-45
2021/11/12 02:38:47;;;;;;;6.67;5.97;;;8.50;99.90;;;;;;5007577;28;20898;-46
2021/11/12 02:41:13;;;;;;;10.53;5.50;;;8.30;99.90;;;;;;5012156;28;20457;-45
2021/11/12 02:43:43;;;;;;;7.30;6.60;;;8.40;99.90;;;;;;5023616;28;20986;-47
2021/11/12 02:46:11;;;;;;;8.30;6.73;;;8.50;99.90;;;;;;5008738;28;20440;-45
2021/11/12 02:48:40;;;;;;;9.60;6.00;;;8.50;99.90;;;;;;5020738;28;20938;-48
2021/11/12 02:51:09;;;;;;;7.23;6.43;;;8.40;99.90;;;;;;5007093;28;21004;-47
2021/11/12 02:53:36;;;;;;;8.20;7.20;;;8.30;99.90;;;;;;5022125;28;20819;-45
2021/11/12 02:56:05;;;;;;;8.00;7.10;;;8.30;99.90;;;;;;5021264;28;20442;-45
2021/11/12 02:58:31;;;;;;;6.93;6.23;;;8.20;99.90;;;;;;5010243;28;21006;-44
2021/11/12 03:00:59;;;;;;;11.50;6.50;;;8.20;99.90;;;;;;5016795;28;20592;-46
2021/11/12 03:03:25;;;;;;;9.53;6.80;;;8.10;99.90;;;;;;5008012;28;20422;-45
2021/11/12 03:05:50;;;;;;;7.70;6.87;;;8.30;99.90;;;;;;5015332;28;20709;-45
2021/11/12 03:08:16;;;;;;;8.97;7.80;;;8.10;99.90;;;;;;5008465;28;20206;-44
2021/11/12 03:10:43;;;;;;;9.50;8.20;;;8.30;99.90;;;;;;5009144;28;20219;-46
2021/11/12 03:13:09;;;;;;;10.00;8.27;;;7.90;99.90;;;;;;5015275;28;20426;-47
2021/11/12 03:15:35;;;;;;;9.93;8.13;;;7.90;99.90;;;;;;5023253;28;20543;-44
2021/11/12 03:18:01;;;;;;;9.77;7.67;;;7.70;99.90;;;;;;5012599;28;20430;-46
2021/11/12 03:20:30;;;;;;;8.97;7.90;;;7.90;99.90;;;;;;5011323;28;20457;-47
2021/11/12 03:23:04;;;;;;;9.47;8.30;;;7.80;99.90;;;;;;5006444;28;20425;-46
2021/11/12 03:25:42;;;;;;;10.53;8.90;;;7.80;99.90;;;;;;5007563;28;20820;-44
2021/11/12 03:56:27;;;;;;;11.10;8.83;;;7.40;99.90;;;;;;5022719;28;20471;-45
2021/11/12 04:17:34;;;;;;;12.03;9.70;;;7.30;99.90;;;;;;5007413;28;20418;-47
2021/11/12 04:20:29;;;;;;;12.17;9.70;;;7.00;99.90;;;;;;5011271;28;20520;-45
2021/11/12 05:10:00;;;;;;;12.27;9.10;;;6.80;99.90;;;;;;5010529;28;20777;-45
2021/11/12 05:43:36;;;;;;;18.83;11.70;;;6.00;99.90;;;;;;5024015;28;20433;-45
2021/11/12 05:55:58;;;;;;;30.73;15.90;;;5.70;99.90;;;;;;5028989;28;20867;-45
2021/11/12 05:58:24;;;;;;;26.20;15.57;;;5.70;99.90;;;;;;5016260;28;20457;-46
2021/11/12 06:00:50;;;;;;;26.20;16.20;;;5.50;99.90;;;;;;5018113;28;20433;-44
2021/11/12 06:03:17;;;;;;;28.13;17.63;;;5.60;99.90;;;;;;5007975;28;20868;-44
2021/11/12 06:05:42;;;;;;;27.10;17.30;;;5.60;99.90;;;;;;5018554;28;20571;-49
2021/11/12 06:08:08;;;;;;;26.40;16.30;;;5.70;99.90;;;;;;5027763;28;20452;-45
2021/11/12 06:10:34;;;;;;;30.37;17.80;;;5.70;99.90;;;;;;5009544;28;20461;-45
2021/11/12 06:12:59;;;;;;;26.07;15.60;;;5.70;99.90;;;;;;5011973;28;20185;-44
2021/11/12 06:15:25;;;;;;;26.47;17.10;;;5.90;99.90;;;;;;5019886;28;20179;-45
2021/11/12 06:17:51;;;;;;;25.93;14.77;;;5.90;99.90;;;;;;5025551;28;20186;-45
2021/11/12 06:20:17;;;;;;;26.87;16.50;;;5.80;99.90;;;;;;5038103;28;20341;-45
2021/11/12 06:22:42;;;;;;;23.07;15.13;;;5.90;99.90;;;;;;5029762;28;20436;-45
2021/11/12 06:25:10;;;;;;;25.33;15.83;;;5.80;99.90;;;;;;5023839;28;20194;-45
2021/11/12 06:27:35;;;;;;;30.33;16.70;;;5.60;99.90;;;;;;5018732;28;20195;-46
2021/11/12 06:30:04;;;;;;;23.20;14.80;;;5.70;99.90;;;;;;5015760;28;20437;-44
2021/11/12 06:32:29;;;;;;;22.57;15.87;;;5.80;99.90;;;;;;5014880;28;20172;-45
2021/11/12 06:34:55;;;;;;;23.47;16.63;;;5.70;99.90;;;;;;5015390;28;20421;-44
2021/11/12 06:37:21;;;;;;;24.77;17.03;;;5.80;99.90;;;;;;5025755;28;20277;-45
2021/11/12 06:39:46;;;;;;;23.10;16.30;;;6.00;99.90;;;;;;5008667;28;20190;-46
2021/11/12 06:42:18;;;;;;;20.57;15.30;;;5.90;99.90;;;;;;5008785;28;20195;-44
2021/11/12 06:50:15;;;;;;;21.60;15.10;;;6.00;99.90;;;;;;5015329;28;20470;-46
2021/11/12 06:52:45;;;;;;;19.43;13.53;;;5.80;99.90;;;;;;5022609;28;20448;-49
2021/11/12 06:55:13;;;;;;;23.00;16.40;;;5.90;99.90;;;;;;5027997;28;20433;-44
2021/11/12 06:57:41;;;;;;;21.73;15.13;;;6.00;99.90;;;;;;5026987;28;20470;-45
2021/11/12 07:00:11;;;;;;;21.20;14.57;;;5.90;99.90;;;;;;5017007;28;20422;-46
2021/11/12 07:02:37;;;;;;;23.00;16.07;;;5.80;99.90;;;;;;5023344;28;20520;-49
2021/11/12 07:05:03;;;;;;;23.70;15.53;;;6.00;99.90;;;;;;5012594;28;20556;-45
2021/11/12 07:07:29;;;;;;;20.67;14.23;;;6.10;99.90;;;;;;5015902;28;20429;-46
2021/11/12 07:09:55;;;;;;;21.90;15.13;;;5.90;99.90;;;;;;5021868;28;20559;-45
2021/11/12 07:12:21;;;;;;;21.30;15.37;;;6.10;99.90;;;;;;5022187;28;20432;-44
2021/11/12 07:14:48;;;;;;;18.63;13.73;;;5.90;99.90;;;;;;5017381;28;20438;-48
2021/11/12 07:17:14;;;;;;;22.57;15.57;;;6.00;99.90;;;;;;5017920;28;20275;-45
2021/11/12 07:19:40;;;;;;;20.67;14.40;;;6.20;99.90;;;;;;5011043;28;20434;-44
2021/11/12 07:22:06;;;;;;;21.60;15.40;;;6.10;99.90;;;;;;5014995;28;20433;-44
2021/11/12 07:24:32;;;;;;;24.33;16.80;;;6.10;99.90;;;;;;5011837;28;20422;-44
2021/11/12 07:26:59;;;;;;;21.87;15.00;;;6.10;99.90;;;;;;5007755;28;20797;-46
2021/11/12 07:29:25;;;;;;;20.93;15.53;;;6.10;99.90;;;;;;5015622;28;20533;-44
2021/11/12 07:31:51;;;;;;;23.60;17.03;;;6.10;99.90;;;;;;5014885;28;20469;-46
2021/11/12 07:34:17;;;;;;;22.77;15.57;;;6.30;99.90;;;;;;5008608;28;20472;-45
2021/11/12 07:36:54;;;;;;;22.43;14.97;;;6.30;99.90;;;;;;5011185;28;20186;-46
2021/11/12 07:39:25;;;;;;;24.77;15.70;;;6.20;99.90;;;;;;5010841;28;20182;-44
2021/11/12 07:45:13;;;;;;;25.23;16.63;;;6.20;99.90;;;;;;5018889;28;20954;-45
2021/11/12 07:47:22;;;;;;;19.83;15.20;;;6.40;99.90;;;;;;5017521;28;20440;-45
2021/11/12 07:49:57;;;;;;;22.23;16.27;;;6.40;99.90;;;;;;5018330;28;20430;-44
2021/11/12 07:52:27;;;;;;;22.93;15.60;;;7.00;99.90;;;;;;5015598;28;20417;-45
2021/11/12 07:54:53;;;;;;;18.83;14.03;;;7.30;99.90;;;;;;5032645;28;20421;-45
2021/11/12 07:57:19;;;;;;;19.83;14.23;;;7.40;99.90;;;;;;5036014;28;20436;-46
2021/11/12 07:59:45;;;;;;;18.50;14.73;;;7.80;99.90;;;;;;5030828;28;20589;-44
2021/11/12 08:02:15;;;;;;;18.50;13.53;;;7.70;99.90;;;;;;5018189;28;20430;-45
2021/11/12 08:04:43;;;;;;;19.83;14.60;;;7.50;99.90;;;;;;5019290;28;20191;-44
2021/11/12 08:07:09;;;;;;;17.20;13.67;;;7.90;99.90;;;;;;5026880;28;20870;-45
2021/11/12 08:09:38;;;;;;;17.77;13.90;;;8.00;99.90;;;;;;5014464;28;21017;-46
2021/11/12 08:12:07;;;;;;;20.93;14.43;;;8.20;99.90;;;;;;5007201;28;20473;-46
2021/11/12 08:14:39;;;;;;;18.90;14.03;;;8.60;99.90;;;;;;5009023;28;20550;-46
2021/11/12 08:17:29;;;;;;;19.50;14.80;;;8.60;99.90;;;;;;5017505;28;20417;-45
2021/11/12 08:20:01;;;;;;;14.90;12.90;;;8.90;99.90;;;;;;5007468;28;20787;-44
2021/11/12 08:22:31;;;;;;;17.93;12.50;;;8.80;99.90;;;;;;5014585;28;20429;-44
2021/11/12 08:32:59;;;;;;;17.27;13.57;;;9.70;99.90;;;;;;5015988;28;20428;-46
2021/11/12 08:48:43;;;;;;;15.87;12.97;;;10.20;99.90;;;;;;5026273;28;20435;-49
2021/11/12 08:51:14;;;;;;;14.20;12.53;;;10.20;99.90;;;;;;5021655;28;20495;-45
2021/11/12 08:53:43;;;;;;;14.57;12.97;;;9.90;99.90;;;;;;5029568;28;20429;-45
2021/11/12 08:56:13;;;;;;;14.67;12.57;;;10.00;99.90;;;;;;5026266;28;20933;-48
2021/11/12 08:58:44;;;;;;;17.83;13.57;;;10.00;99.90;;;;;;5024322;28;20506;-49
2021/11/12 09:01:10;;;;;;;16.20;13.80;;;9.80;99.90;;;;;;5014348;28;20956;-46
2021/11/12 09:03:36;;;;;;;15.93;12.77;;;9.90;99.90;;;;;;5010628;28;20842;-48
2021/11/12 09:06:04;;;;;;;17.30;14.27;;;10.00;99.90;;;;;;5006740;28;20512;-47
2021/11/12 09:08:30;;;;;;;14.67;12.00;;;10.10;99.90;;;;;;5015472;28;20503;-45
2021/11/12 09:10:56;;;;;;;16.27;13.47;;;10.20;99.90;;;;;;5005223;28;20473;-45
2021/11/12 09:13:25;;;;;;;15.63;12.47;;;10.10;99.90;;;;;;5005999;28;20440;-48
2021/11/12 09:15:54;;;;;;;16.20;13.23;;;10.60;99.90;;;;;;5022504;28;20554;-46
2021/11/12 09:18:22;;;;;;;16.20;13.67;;;10.50;99.90;;;;;;5016837;28;20434;-46
2021/11/12 09:20:50;;;;;;;13.80;12.30;;;10.90;99.90;;;;;;5007118;28;20469;-47
2021/11/12 09:23:16;;;;;;;15.93;12.70;;;11.10;99.90;;;;;;5009390;28;20762;-49
2021/11/12 09:25:42;;;;;;;15.23;12.90;;;11.40;99.90;;;;;;5006797;28;20847;-47
2021/11/12 09:28:09;;;;;;;15.30;13.30;;;11.20;99.90;;;;;;5006296;28;20436;-47
2021/11/12 09:30:35;;;;;;;15.43;12.53;;;11.10;99.90;;;;;;5012628;28;20217;-46
2021/11/12 09:33:03;;;;;;;16.13;13.50;;;10.70;99.90;;;;;;5024114;28;20508;-46
2021/11/12 09:35:29;;;;;;;16.10;13.10;;;10.40;99.90;;;;;;5006722;28;20426;-48
2021/11/12 09:37:55;;;;;;;17.27;13.83;;;10.20;99.90;;;;;;5007813;28;20912;-45
2021/11/12 09:40:21;;;;;;;15.87;13.50;;;10.00;99.90;;;;;;5010644;28;20191;-46
2021/11/12 09:42:47;;;;;;;16.80;13.40;;;10.10;99.90;;;;;;5009115;28;20270;-46
2021/11/12 09:45:14;;;;;;;16.90;13.70;;;9.50;99.90;;;;;;5012097;28;20183;-47
2021/11/12 09:47:41;;;;;;;17.23;14.37;;;9.60;99.90;;;;;;5022342;28;20955;-45
2021/11/12 09:50:10;;;;;;;18.97;14.17;;;9.50;99.90;;;;;;5012863;28;20433;-46
2021/11/12 09:52:37;;;;;;;15.90;13.97;;;9.40;99.90;;;;;;5015390;28;20414;-47
2021/11/12 09:55:05;;;;;;;17.57;14.63;;;9.70;99.90;;;;;;5016358;28;20454;-46
2021/11/12 09:57:31;;;;;;;15.63;13.67;;;10.20;99.90;;;;;;5009334;28;20440;-45
2021/11/12 10:00:01;;;;;;;14.80;12.73;;;10.60;99.90;;;;;;5017531;28;20804;-46
2021/11/12 10:02:29;;;;;;;15.70;13.43;;;10.70;99.90;;;;;;5014621;28;20194;-46
2021/11/12 10:04:55;;;;;;;16.67;13.63;;;10.70;99.90;;;;;;5014063;28;20426;-48
2021/11/12 10:07:22;;;;;;;15.77;13.70;;;11.00;99.90;;;;;;5009862;28;20546;-45
2021/11/12 10:10:10;;;;;;;13.60;12.20;;;11.10;99.90;;;;;;5014657;28;20460;-47
2021/11/12 10:12:48;;;;;;;15.97;13.37;;;11.30;99.90;;;;;;5009232;28;20415;-46
2021/11/12 10:15:15;;;;;;;15.97;13.20;;;11.40;99.90;;;;;;5016108;28;20487;-46
2021/11/12 10:17:43;;;;;;;15.27;12.10;;;11.10;99.90;;;;;;5028488;28;20930;-48
2021/11/12 10:20:12;;;;;;;16.47;13.10;;;11.20;99.90;;;;;;5018199;28;20452;-46
2021/11/12 10:22:43;;;;;;;17.20;13.70;;;11.10;99.90;;;;;;5008577;28;20763;-46
2021/11/12 10:25:09;;;;;;;17.17;13.53;;;11.00;99.90;;;;;;5013018;28;20511;-45
2021/11/12 10:27:36;;;;;;;15.77;13.40;;;10.80;99.90;;;;;;5029074;28;20448;-45
2021/11/12 10:30:16;;;;;;;15.50;13.57;;;10.70;99.90;;;;;;5023637;28;20468;-46
2021/11/12 10:32:43;;;;;;;16.27;11.83;;;10.60;99.90;;;;;;5021433;28;20420;-47
2021/11/12 10:35:20;;;;;;;16.23;13.60;;;10.40;99.90;;;;;;5016581;28;20469;-46
2021/11/12 10:37:46;;;;;;;16.27;13.07;;;10.40;99.90;;;;;;5009060;28;20444;-45
2021/11/12 10:40:26;;;;;;;14.83;12.27;;;10.40;99.90;;;;;;5018327;28;20505;-45
2021/11/12 10:42:58;;;;;;;15.23;12.57;;;10.30;99.90;;;;;;5008710;28;20774;-45
2021/11/12 10:45:27;;;;;;;17.73;14.20;;;10.40;99.90;;;;;;5009743;28;20509;-45
2021/11/12 10:47:56;;;;;;;17.27;13.03;;;10.20;99.90;;;;;;5030723;28;20468;-45
2021/11/12 10:50:25;;;;;;;15.60;12.87;;;9.90;99.90;;;;;;5032006;28;20467;-45
2021/11/12 10:52:51;;;;;;;16.33;14.03;;;10.00;99.90;;;;;;5016240;28;20416;-45
2021/11/12 10:55:21;;;;;;;17.90;13.60;;;9.90;99.90;;;;;;5012097;28;20438;-45
2021/11/12 10:57:57;;;;;;;17.83;14.30;;;9.90;99.90;;;;;;5008689;28;20453;-44
2021/11/12 11:00:36;;;;;;;19.57;14.53;;;9.80;99.90;;;;;;5010346;28;20440;-46
2021/11/12 11:03:14;;;;;;;17.53;12.27;;;9.80;99.90;;;;;;5014989;28;20432;-47
2021/11/12 11:05:43;;;;;;;16.53;13.00;;;9.90;99.90;;;;;;5013692;28;20426;-47
2021/11/12 11:08:25;;;;;;;20.30;13.43;;;9.90;99.90;;;;;;5008098;28;20520;-46
2021/11/12 11:10:55;;;;;;;19.60;13.90;;;10.00;99.90;;;;;;5017610;28;20473;-45
2021/11/12 11:13:28;;;;;;;18.30;13.37;;;10.00;99.90;;;;;;5007967;28;20814;-45
2021/11/12 11:16:05;;;;;;;16.43;13.50;;;9.90;99.90;;;;;;5011651;28;20444;-47
2021/11/12 11:18:41;;;;;;;15.97;12.40;;;10.10;99.90;;;;;;5019837;28;20425;-45
2021/11/12 11:21:10;;;;;;;17.30;13.43;;;10.20;99.90;;;;;;5039633;28;20485;-46
2021/11/12 11:23:56;;;;;;;16.03;12.83;;;10.10;99.90;;;;;;5005928;28;20437;-45
2021/11/12 11:26:23;;;;;;;16.07;12.70;;;10.10;99.90;;;;;;5024106;28;20943;-47
2021/11/12 11:28:51;;;;;;;18.53;13.33;;;10.20;99.90;;;;;;5027808;28;20428;-46
2021/11/12 11:31:18;;;;;;;20.47;14.20;;;10.50;99.90;;;;;;5017434;28;20474;-45
2021/11/12 11:33:47;;;;;;;15.53;12.50;;;10.60;99.90;;;;;;5025841;28;20496;-45
2021/11/12 11:36:19;;;;;;;17.50;13.00;;;10.70;99.90;;;;;;5019974;28;20437;-46
2021/11/12 11:38:46;;;;;;;16.17;13.67;;;10.70;99.90;;;;;;5007549;28;20512;-45
2021/11/12 11:41:14;;;;;;;18.47;14.03;;;10.90;99.90;;;;;;5009142;28;20928;-46
2021/11/12 11:43:41;;;;;;;18.37;14.47;;;11.10;99.90;;;;;;5006886;28;20429;-48
2021/11/12 11:46:14;;;;;;;16.43;13.33;;;11.40;99.90;;;;;;5008037;28;20438;-47
2021/11/12 11:48:43;;;;;;;18.37;13.40;;;11.50;99.90;;;;;;5017542;28;20843;-45
2021/11/12 11:51:09;;;;;;;15.43;12.73;;;11.70;99.90;;;;;;5033963;28;20532;-47
2021/11/12 11:53:41;;;;;;;17.07;13.23;;;11.70;99.90;;;;;;5021059;28;20409;-46
2021/11/12 11:56:13;;;;;;;15.03;12.70;;;11.70;99.90;;;;;;5018554;28;20440;-45
2021/11/12 11:58:52;;;;;;;16.13;12.20;;;11.90;99.90;;;;;;5007532;28;20457;-46
2021/11/12 12:01:18;;;;;;;16.87;12.80;;;12.10;99.90;;;;;;5006062;28;20445;-46
2021/11/12 12:04:14;;;;;;;14.50;12.30;;;12.30;99.90;;;;;;5009243;28;20859;-47
2021/11/12 12:06:42;;;;;;;16.83;12.87;;;12.40;99.90;;;;;;4973961;28;20270;-47
2021/11/12 12:09:14;;;;;;;13.43;11.73;;;12.50;99.90;;;;;;5042801;28;20427;-46
2021/11/12 12:11:51;;;;;;;16.20;12.60;;;12.50;99.90;;;;;;5007213;28;20473;-45
2021/11/12 12:14:25;;;;;;;15.00;11.37;;;12.30;99.90;;;;;;5006996;28;20453;-48
2021/11/12 12:17:12;;;;;;;13.90;11.60;;;12.20;99.90;;;;;;5013018;28;20432;-46
2021/11/12 12:38:06;;;;;;;14.40;10.97;;;11.60;99.90;;;;;;5007135;28;20870;-46
2021/11/12 13:25:35;;;;;;;10.50;9.13;;;11.50;99.90;;;;;;5014155;28;20431;-46
2021/11/12 13:28:09;;;;;;;9.33;8.20;;;11.50;99.90;;;;;;5012315;28;20402;-45
2021/11/12 13:30:35;;;;;;;13.10;9.60;;;11.50;99.90;;;;;;5010365;28;20461;-46
2021/11/12 13:33:01;;;;;;;11.00;8.90;;;11.40;99.90;;;;;;5014461;28;20436;-46
2021/11/12 13:35:34;;;;;;;11.97;8.47;;;11.70;99.90;;;;;;5024041;28;20187;-46
2021/11/12 13:38:01;;;;;;;10.60;8.73;;;11.60;99.90;;;;;;5010128;28;20495;-45
2021/11/12 13:40:31;;;;;;;9.87;8.53;;;11.50;99.90;;;;;;5015496;28;20920;-46
2021/11/12 13:42:57;;;;;;;11.63;7.63;;;11.60;99.90;;;;;;5009297;28;20429;-46
2021/11/12 13:45:25;;;;;;;9.00;8.10;;;11.70;99.90;;;;;;5010080;28;20429;-46
2021/11/12 13:48:11;;;;;;;11.47;8.20;;;11.80;99.90;;;;;;5015342;28;20198;-45
2021/11/12 13:50:50;;;;;;;9.50;8.23;;;11.60;99.90;;;;;;5020952;28;20968;-45
2021/11/12 13:53:17;;;;;;;10.10;8.43;;;11.40;99.90;;;;;;5022408;28;20510;-47
2021/11/12 13:55:44;;;;;;;11.70;9.30;;;11.60;99.90;;;;;;5029818;28;20995;-47
2021/11/12 13:58:10;;;;;;;14.23;8.90;;;11.60;99.90;;;;;;5017503;28;20441;-45
2021/11/12 14:00:37;;;;;;;12.77;9.83;;;11.50;99.90;;;;;;5009515;28;20524;-45
2021/11/12 14:03:08;;;;;;;8.70;7.67;;;11.60;99.90;;;;;;5018296;28;20440;-48
2021/11/12 14:05:36;;;;;;;10.57;8.90;;;11.50;99.90;;;;;;5036730;28;20455;-45
2021/11/12 14:08:28;;;;;;;14.77;9.50;;;11.50;99.90;;;;;;5030458;28;20436;-45
2021/11/12 14:10:53;;;;;;;10.47;8.40;;;11.40;99.90;;;;;;5012136;28;20537;-46
2021/11/12 14:13:21;;;;;;;10.53;8.30;;;11.40;99.90;;;;;;5012069;28;20430;-46
2021/11/12 14:19:37;;;;;;;10.13;7.93;;;11.40;99.90;;;;;;5016940;28;20437;-47
2021/11/12 14:22:09;;;;;;;12.17;9.63;;;11.40;99.90;;;;;;5002901;28;20946;-45
2021/11/12 14:32:54;;;;;;;11.10;8.60;;;11.30;99.90;;;;;;5009421;28;20818;-46
2021/11/12 14:38:17;;;;;;;11.13;8.80;;;11.20;99.90;;;;;;5008709;28;20785;-45
2021/11/12 14:43:35;;;;;;;10.60;8.50;;;11.30;99.90;;;;;;5017143;28;20464;-48
2021/11/12 14:47:29;;;;;;;12.97;9.10;;;11.00;99.90;;;;;;5028259;28;20694;-45
2021/11/12 14:49:34;;;;;;;10.93;8.60;;;11.10;99.90;;;;;;4995651;28;20544;-46
2021/11/12 14:52:06;;;;;;;9.20;8.10;;;11.20;99.90;;;;;;5026068;28;20474;-46
2021/11/12 14:54:48;;;;;;;10.13;9.00;;;11.30;99.90;;;;;;5008175;28;20484;-47
2021/11/12 14:59:56;;;;;;;10.13;8.07;;;11.10;99.90;;;;;;5008490;28;20422;-47
2021/11/12 15:02:22;;;;;;;12.13;9.27;;;11.00;99.90;;;;;;5008247;28;20862;-47
2021/11/12 15:04:48;;;;;;;12.50;9.17;;;10.90;99.90;;;;;;5016559;28;20577;-46
2021/11/12 15:07:20;;;;;;;9.90;8.07;;;10.90;99.90;;;;;;5020366;28;20814;-45
2021/11/12 15:09:47;;;;;;;12.90;9.93;;;10.90;99.90;;;;;;5012925;28;21130;-45
2021/11/12 15:12:13;;;;;;;13.37;9.13;;;11.00;99.90;;;;;;5010158;28;20539;-45
2021/11/12 15:14:46;;;;;;;11.13;10.00;;;10.80;99.90;;;;;;5007694;28;20469;-45
2021/11/12 15:17:11;;;;;;;12.17;8.53;;;11.00;99.90;;;;;;5008100;28;20501;-49
2021/11/12 15:19:41;;;;;;;9.83;8.43;;;10.90;99.90;;;;;;5013324;28;20553;-49
2021/11/12 15:25:01;;;;;;;11.10;8.50;;;10.70;99.90;;;;;;5005925;28;20554;-46
2021/11/12 15:30:20;;;;;;;9.37;7.90;;;10.70;99.90;;;;;;5008008;28;20434;-45
2021/11/12 15:32:49;;;;;;;9.83;8.50;;;10.40;99.90;;;;;;5007423;28;20931;-45
2021/11/12 15:35:18;;;;;;;11.10;9.20;;;10.50;99.90;;;;;;5015110;28;20414;-45
2021/11/12 15:40:34;;;;;;;13.10;9.37;;;10.40;99.90;;;;;;5007915;28;20506;-45
2021/11/12 15:48:09;;;;;;;14.43;9.93;;;10.30;99.90;;;;;;5013671;28;20433;-45
2021/11/12 15:53:12;;;;;;;9.03;8.00;;;10.20;99.90;;;;;;5026294;28;20417;-47
2021/11/12 15:55:54;;;;;;;10.50;8.30;;;10.10;99.90;;;;;;5009356;28;20453;-46
2021/11/12 16:09:31;;;;;;;17.00;12.23;;;9.90;99.90;;;;;;5020212;28;20453;-45
2021/11/12 16:14:20;;;;;;;13.77;11.70;;;9.80;99.90;;;;;;5008170;28;20949;-45
2021/11/12 16:19:43;;;;;;;14.57;10.27;;;9.80;99.90;;;;;;5027629;28;20433;-45
2021/11/12 16:24:51;;;;;;;11.90;9.07;;;9.90;99.90;;;;;;5035022;28;20432;-44
2021/11/12 16:27:17;;;;;;;11.37;9.27;;;9.60;99.90;;;;;;5012684;28;20474;-45
2021/11/12 16:29:48;;;;;;;12.70;9.60;;;9.70;99.90;;;;;;5016005;28;20443;-48
2021/11/12 16:32:28;;;;;;;11.97;9.87;;;9.70;99.90;;;;;;5023274;28;20472;-45
2021/11/12 16:34:59;;;;;;;12.23;10.07;;;9.90;99.90;;;;;;5015213;28;20443;-45
2021/11/12 16:37:27;;;;;;;13.80;10.67;;;10.00;99.90;;;;;;5024112;28;20436;-46
2021/11/12 16:45:40;;;;;;;13.13;10.67;;;10.10;99.90;;;;;;5025050;28;20851;-45
2021/11/12 16:53:16;;;;;;;11.63;9.77;;;10.70;99.90;;;;;;5021236;28;20920;-46
2021/11/12 16:58:54;;;;;;;12.37;10.30;;;11.00;99.90;;;;;;5018360;28;20460;-45
2021/11/12 17:04:28;;;;;;;13.10;10.70;;;11.20;99.90;;;;;;5012184;28;20535;-46
2021/11/12 17:07:18;;;;;;;14.60;10.60;;;11.30;99.90;;;;;;5019227;28;20561;-45
2021/11/12 17:12:27;;;;;;;13.43;11.63;;;11.40;99.90;;;;;;5017379;28;20505;-46
2021/11/12 17:47:08;;;;;;;15.47;12.40;;;13.00;99.70;;;;;;5018720;28;21055;-45
2021/11/12 17:49:43;;;;;;;15.80;12.97;;;13.10;99.80;;;;;;5015299;28;20457;-44
2021/11/12 18:05:48;;;;;;;16.20;11.90;;;13.30;99.30;;;;;;5017921;28;20498;-45
2021/11/12 18:11:18;;;;;;;14.77;12.20;;;12.90;99.50;;;;;;5024270;28;20468;-45
2021/11/12 18:13:53;;;;;;;14.23;12.60;;;13.00;99.50;;;;;;5021998;28;20433;-44
2021/11/12 21:45:21;;;;;;;11.97;9.03;;;11.30;99.90;;;;;;5021372;28;20432;-45
2021/11/12 21:47:47;;;;;;;13.20;9.37;;;11.00;99.90;;;;;;5015149;28;20486;-44
2021/11/12 21:50:13;;;;;;;16.53;8.77;;;10.90;99.90;;;;;;5018153;28;20425;-44
2021/11/12 21:52:39;;;;;;;14.87;10.97;;;10.80;99.90;;;;;;5046611;28;20225;-44
2021/11/12 21:55:07;;;;;;;14.10;10.50;;;10.80;99.90;;;;;;5011700;28;20425;-44
2021/11/12 21:57:34;;;;;;;11.80;9.63;;;10.50;99.90;;;;;;5009800;28;20921;-45
2021/11/12 22:00:00;;;;;;;11.50;8.90;;;10.80;99.90;;;;;;5018246;28;20475;-46
2021/11/12 22:02:26;;;;;;;11.57;9.67;;;10.80;99.90;;;;;;5009300;28;20794;-44
2021/11/12 22:04:52;;;;;;;10.30;9.20;;;10.80;99.90;;;;;;5009243;28;20194;-44
2021/11/12 22:07:17;;;;;;;11.43;9.60;;;10.70;99.90;;;;;;5017179;28;20205;-45
2021/11/12 22:09:43;;;;;;;11.50;10.00;;;10.90;99.90;;;;;;5019384;28;20441;-45
2021/11/12 22:12:09;;;;;;;13.53;9.33;;;10.70;99.90;;;;;;5021531;28;20222;-44
2021/11/12 22:14:35;;;;;;;10.90;8.73;;;10.80;99.90;;;;;;5012294;28;20597;-45
2021/11/12 22:17:01;;;;;;;12.33;9.63;;;10.80;99.90;;;;;;5009203;28;20469;-45
2021/11/12 22:19:27;;;;;;;10.30;8.80;;;10.90;99.90;;;;;;5009201;28;20241;-45
2021/11/12 22:21:52;;;;;;;11.70;9.90;;;10.80;99.90;;;;;;5015299;28;20440;-45
2021/11/12 22:24:19;;;;;;;12.83;10.27;;;10.80;99.90;;;;;;5020998;28;20559;-46
2021/11/12 22:26:49;;;;;;;11.50;9.57;;;10.80;99.90;;;;;;5013131;28;20758;-44
2021/11/12 22:29:15;;;;;;;11.73;9.90;;;10.80;99.90;;;;;;5009269;28;20434;-45
2021/11/12 22:31:41;;;;;;;13.00;10.00;;;10.70;99.90;;;;;;5021819;28;20880;-46
2021/11/12 22:34:07;;;;;;;11.80;9.13;;;10.90;99.90;;;;;;5008329;28;20422;-44